sensor_id;sensor_type;location;lat;lon;timestamp;pressure;altitude;pressure_sealevel;temperature;humidity
43488;BME280;29078;41.932;25.554;2023-03-05T00:01:37;99192.84;;;7.23;65.87
43488;BME280;29078;41.932;25.554;2023-03-05T00:04:06;99069.00;;;6.46;65.80
43488;BME280;29078;41.932;25.554;2023-03-05T00:06:32;99069.19;;;6.45;65.84
43488;BME280;29078;41.932;25.554;2023-03-05T00:08:59;99148.25;;;6.90;65.76
43488;BME280;29078;41.932;25.554;2023-03-05T00:11:26;99144.78;;;6.82;65.77
43488;BME280;29078;41.932;25.554;2023-03-05T00:13:54;99184.97;;;7.15;65.93
43488;BME280;29078;41.932;25.554;2023-03-05T00:16:20;99161.69;;;6.95;65.94
43488;BME280;29078;41.932;25.554;2023-03-05T00:18:47;99189.41;;;7.14;65.68
43488;BME280;29078;41.932;25.554;2023-03-05T00:21:22;98928.34;;;5.56;65.09
43488;BME280;29078;41.932;25.554;2023-03-05T00:23:49;99143.66;;;6.92;65.93
43488;BME280;29078;41.932;25.554;2023-03-05T00:26:19;99072.28;;;6.40;65.41
43488;BME280;29078;41.932;25.554;2023-03-05T00:28:45;99090.81;;;6.38;65.88
43488;BME280;29078;41.932;25.554;2023-03-05T00:31:19;99048.66;;;6.08;65.80
43488;BME280;29078;41.932;25.554;2023-03-05T00:33:45;99171.69;;;6.84;65.82
43488;BME280;29078;41.932;25.554;2023-03-05T00:36:10;99070.75;;;6.05;66.37
43488;BME280;29078;41.932;25.554;2023-03-05T00:38:36;99047.19;;;6.13;65.96
43488;BME280;29078;41.932;25.554;2023-03-05T00:41:01;99077.53;;;6.32;65.83
43488;BME280;29078;41.932;25.554;2023-03-05T00:43:28;99164.97;;;6.89;65.75
43488;BME280;29078;41.932;25.554;2023-03-05T00:45:53;99093.91;;;6.34;66.47
43488;BME280;29078;41.932;25.554;2023-03-05T00:48:18;99123.13;;;6.63;66.40
43488;BME280;29078;41.932;25.554;2023-03-05T00:50:44;99172.50;;;6.84;66.27
43488;BME280;29078;41.932;25.554;2023-03-05T00:53:10;99107.03;;;6.42;66.26
43488;BME280;29078;41.932;25.554;2023-03-05T00:55:35;98859.59;;;4.87;65.63
43488;BME280;29078;41.932;25.554;2023-03-05T00:58:01;99058.81;;;6.19;65.94
43488;BME280;29078;41.932;25.554;2023-03-05T01:00:26;99021.78;;;5.97;66.17
43488;BME280;29078;41.932;25.554;2023-03-05T01:02:52;99027.19;;;5.96;66.22
43488;BME280;29078;41.932;25.554;2023-03-05T01:05:17;99034.88;;;5.97;66.16
43488;BME280;29078;41.932;25.554;2023-03-05T01:07:43;99074.56;;;6.27;66.07
43488;BME280;29078;41.932;25.554;2023-03-05T01:10:09;99081.28;;;6.37;66.32
43488;BME280;29078;41.932;25.554;2023-03-05T01:12:35;98997.78;;;5.76;65.81
43488;BME280;29078;41.932;25.554;2023-03-05T01:15:01;98844.06;;;4.86;65.23
43488;BME280;29078;41.932;25.554;2023-03-05T01:17:26;99011.91;;;5.91;66.05
43488;BME280;29078;41.932;25.554;2023-03-05T01:19:52;99135.41;;;6.63;65.74
43488;BME280;29078;41.932;25.554;2023-03-05T01:22:17;98979.59;;;5.66;65.69
43488;BME280;29078;41.932;25.554;2023-03-05T01:24:42;98951.56;;;5.51;66.24
43488;BME280;29078;41.932;25.554;2023-03-05T01:27:08;99092.59;;;6.30;66.17
43488;BME280;29078;41.932;25.554;2023-03-05T01:29:35;99045.38;;;6.05;65.92
43488;BME280;29078;41.932;25.554;2023-03-05T01:32:00;99100.28;;;6.31;66.12
43488;BME280;29078;41.932;25.554;2023-03-05T01:34:26;98927.47;;;5.39;66.22
43488;BME280;29078;41.932;25.554;2023-03-05T01:36:51;99000.41;;;5.84;65.97
43488;BME280;29078;41.932;25.554;2023-03-05T01:39:17;99100.31;;;6.48;66.20
43488;BME280;29078;41.932;25.554;2023-03-05T01:41:42;99068.34;;;6.20;65.93
43488;BME280;29078;41.932;25.554;2023-03-05T01:44:23;99033.81;;;5.82;66.08
43488;BME280;29078;41.932;25.554;2023-03-05T01:46:49;99017.44;;;5.80;65.70
43488;BME280;29078;41.932;25.554;2023-03-05T01:51:45;99129.66;;;6.43;66.25
43488;BME280;29078;41.932;25.554;2023-03-05T01:54:14;99117.16;;;6.21;66.08
43488;BME280;29078;41.932;25.554;2023-03-05T01:56:42;99138.34;;;6.44;66.62
43488;BME280;29078;41.932;25.554;2023-03-05T01:59:09;99013.00;;;5.72;65.85
43488;BME280;29078;41.932;25.554;2023-03-05T02:01:40;99156.38;;;6.47;65.92
43488;BME280;29078;41.932;25.554;2023-03-05T02:04:08;99129.97;;;6.40;65.85
43488;BME280;29078;41.932;25.554;2023-03-05T02:06:36;99098.16;;;6.19;65.66
43488;BME280;29078;41.932;25.554;2023-03-05T02:09:03;98957.06;;;5.31;65.74
43488;BME280;29078;41.932;25.554;2023-03-05T02:11:28;98970.78;;;5.25;66.00
43488;BME280;29078;41.932;25.554;2023-03-05T02:13:54;99133.06;;;6.27;66.02
43488;BME280;29078;41.932;25.554;2023-03-05T02:16:20;98912.88;;;4.86;66.03
43488;BME280;29078;41.932;25.554;2023-03-05T02:18:45;99126.97;;;6.19;65.99
43488;BME280;29078;41.932;25.554;2023-03-05T02:21:11;99033.25;;;5.62;66.12
43488;BME280;29078;41.932;25.554;2023-03-05T02:23:37;99090.31;;;5.85;66.27
43488;BME280;29078;41.932;25.554;2023-03-05T02:26:05;98992.28;;;5.37;66.31
43488;BME280;29078;41.932;25.554;2023-03-05T02:28:35;99070.63;;;5.72;65.85
43488;BME280;29078;41.932;25.554;2023-03-05T02:31:17;99025.34;;;5.46;65.95
43488;BME280;29078;41.932;25.554;2023-03-05T02:33:43;98972.34;;;5.10;66.11
43488;BME280;29078;41.932;25.554;2023-03-05T02:36:09;98985.03;;;5.23;66.02
43488;BME280;29078;41.932;25.554;2023-03-05T02:38:36;99021.75;;;5.47;66.12
43488;BME280;29078;41.932;25.554;2023-03-05T02:41:02;99039.44;;;5.53;65.82
43488;BME280;29078;41.932;25.554;2023-03-05T02:43:28;99021.44;;;5.50;65.92
43488;BME280;29078;41.932;25.554;2023-03-05T02:45:53;98971.88;;;5.15;66.19
43488;BME280;29078;41.932;25.554;2023-03-05T02:48:18;99041.63;;;5.66;66.06
43488;BME280;29078;41.932;25.554;2023-03-05T02:50:45;99068.16;;;5.71;65.83
43488;BME280;29078;41.932;25.554;2023-03-05T02:53:11;99044.72;;;5.61;65.96
43488;BME280;29078;41.932;25.554;2023-03-05T02:55:37;99064.88;;;5.69;65.84
43488;BME280;29078;41.932;25.554;2023-03-05T02:58:02;99043.56;;;5.64;65.64
43488;BME280;29078;41.932;25.554;2023-03-05T03:00:28;99120.41;;;6.15;66.01
43488;BME280;29078;41.932;25.554;2023-03-05T03:02:53;99137.94;;;6.14;65.91
43488;BME280;29078;41.932;25.554;2023-03-05T03:05:19;98928.66;;;4.68;65.63
43488;BME280;29078;41.932;25.554;2023-03-05T03:07:44;99114.97;;;6.00;65.40
43488;BME280;29078;41.932;25.554;2023-03-05T03:10:10;99066.03;;;5.74;65.57
43488;BME280;29078;41.932;25.554;2023-03-05T03:12:38;99107.13;;;6.00;65.11
43488;BME280;29078;41.932;25.554;2023-03-05T03:15:04;99015.88;;;5.53;65.78
43488;BME280;29078;41.932;25.554;2023-03-05T03:17:30;99063.09;;;5.78;65.37
43488;BME280;29078;41.932;25.554;2023-03-05T03:19:55;99129.81;;;5.91;65.14
43488;BME280;29078;41.932;25.554;2023-03-05T03:22:20;99089.75;;;5.65;65.27
43488;BME280;29078;41.932;25.554;2023-03-05T03:24:46;99123.69;;;5.83;65.48
43488;BME280;29078;41.932;25.554;2023-03-05T03:27:11;99019.53;;;5.26;65.33
43488;BME280;29078;41.932;25.554;2023-03-05T03:29:36;99128.03;;;5.92;65.29
43488;BME280;29078;41.932;25.554;2023-03-05T03:32:02;99055.31;;;5.52;65.54
43488;BME280;29078;41.932;25.554;2023-03-05T03:34:29;99075.66;;;5.66;65.52
43488;BME280;29078;41.932;25.554;2023-03-05T03:36:54;98991.31;;;5.12;65.15
43488;BME280;29078;41.932;25.554;2023-03-05T03:39:20;99110.34;;;5.94;65.37
43488;BME280;29078;41.932;25.554;2023-03-05T03:41:49;99120.97;;;5.92;65.47
43488;BME280;29078;41.932;25.554;2023-03-05T03:44:16;99104.38;;;5.84;64.90
43488;BME280;29078;41.932;25.554;2023-03-05T03:46:43;99117.78;;;5.81;65.64
43488;BME280;29078;41.932;25.554;2023-03-05T03:49:16;99117.59;;;5.74;65.51
43488;BME280;29078;41.932;25.554;2023-03-05T03:51:42;99071.34;;;5.49;65.87
43488;BME280;29078;41.932;25.554;2023-03-05T03:54:07;99117.13;;;5.79;65.62
43488;BME280;29078;41.932;25.554;2023-03-05T03:56:32;99074.91;;;5.39;65.58
43488;BME280;29078;41.932;25.554;2023-03-05T03:58:58;98935.88;;;4.74;65.74
43488;BME280;29078;41.932;25.554;2023-03-05T04:01:23;99018.63;;;5.09;65.40
43488;BME280;29078;41.932;25.554;2023-03-05T04:03:49;99103.84;;;5.72;65.59
43488;BME280;29078;41.932;25.554;2023-03-05T04:06:14;99031.03;;;5.33;65.70
43488;BME280;29078;41.932;25.554;2023-03-05T04:08:40;99027.88;;;5.22;65.48
43488;BME280;29078;41.932;25.554;2023-03-05T04:11:05;99073.66;;;5.52;65.34
43488;BME280;29078;41.932;25.554;2023-03-05T04:13:31;99050.22;;;5.42;65.72
43488;BME280;29078;41.932;25.554;2023-03-05T04:15:56;99060.94;;;5.31;65.77
43488;BME280;29078;41.932;25.554;2023-03-05T04:18:22;99110.56;;;5.74;65.57
43488;BME280;29078;41.932;25.554;2023-03-05T04:20:48;99119.09;;;5.77;65.36
43488;BME280;29078;41.932;25.554;2023-03-05T04:23:13;99115.81;;;5.74;65.95
43488;BME280;29078;41.932;25.554;2023-03-05T04:25:39;99056.03;;;5.28;65.77
43488;BME280;29078;41.932;25.554;2023-03-05T04:28:05;99055.78;;;5.47;65.82
43488;BME280;29078;41.932;25.554;2023-03-05T04:30:30;99005.34;;;5.03;65.68
43488;BME280;29078;41.932;25.554;2023-03-05T04:32:56;99086.19;;;5.40;65.80
43488;BME280;29078;41.932;25.554;2023-03-05T04:35:22;99080.19;;;5.48;65.64
43488;BME280;29078;41.932;25.554;2023-03-05T04:37:47;99108.38;;;5.62;66.12
43488;BME280;29078;41.932;25.554;2023-03-05T04:40:13;98989.78;;;4.67;66.03
43488;BME280;29078;41.932;25.554;2023-03-05T04:42:38;99018.31;;;5.13;65.78
43488;BME280;29078;41.932;25.554;2023-03-05T04:45:04;99043.09;;;5.26;65.71
43488;BME280;29078;41.932;25.554;2023-03-05T04:47:31;99095.63;;;5.67;65.68
43488;BME280;29078;41.932;25.554;2023-03-05T04:49:56;99023.88;;;5.18;65.48
43488;BME280;29078;41.932;25.554;2023-03-05T04:52:22;99048.88;;;5.38;65.45
43488;BME280;29078;41.932;25.554;2023-03-05T04:54:47;98988.47;;;4.97;65.63
43488;BME280;29078;41.932;25.554;2023-03-05T04:57:12;99076.75;;;5.47;65.70
43488;BME280;29078;41.932;25.554;2023-03-05T04:59:38;99093.03;;;5.33;65.87
43488;BME280;29078;41.932;25.554;2023-03-05T05:02:03;99066.06;;;5.15;65.95
43488;BME280;29078;41.932;25.554;2023-03-05T05:04:29;99123.09;;;5.55;65.69
43488;BME280;29078;41.932;25.554;2023-03-05T05:06:56;99128.31;;;5.55;65.98
43488;BME280;29078;41.932;25.554;2023-03-05T05:09:22;99120.00;;;5.59;65.63
43488;BME280;29078;41.932;25.554;2023-03-05T05:11:48;99081.22;;;5.29;65.44
43488;BME280;29078;41.932;25.554;2023-03-05T05:14:13;99098.06;;;5.26;65.58
43488;BME280;29078;41.932;25.554;2023-03-05T05:16:38;99048.38;;;5.08;65.37
43488;BME280;29078;41.932;25.554;2023-03-05T05:19:04;99150.59;;;5.59;65.32
43488;BME280;29078;41.932;25.554;2023-03-05T05:21:29;99151.72;;;5.56;65.42
43488;BME280;29078;41.932;25.554;2023-03-05T05:23:55;99107.28;;;5.38;65.49
43488;BME280;29078;41.932;25.554;2023-03-05T05:26:20;99056.66;;;4.96;65.27
43488;BME280;29078;41.932;25.554;2023-03-05T05:28:46;98862.13;;;3.67;65.14
43488;BME280;29078;41.932;25.554;2023-03-05T05:31:13;99144.34;;;5.52;65.29
43488;BME280;29078;41.932;25.554;2023-03-05T05:33:39;99142.22;;;5.55;65.42
43488;BME280;29078;41.932;25.554;2023-03-05T05:36:06;99138.31;;;5.59;65.59
43488;BME280;29078;41.932;25.554;2023-03-05T05:38:32;99015.19;;;4.57;65.23
43488;BME280;29078;41.932;25.554;2023-03-05T05:41:03;99009.16;;;4.83;65.47
43488;BME280;29078;41.932;25.554;2023-03-05T05:43:28;99025.31;;;4.78;65.49
43488;BME280;29078;41.932;25.554;2023-03-05T05:45:54;99011.50;;;4.68;65.62
43488;BME280;29078;41.932;25.554;2023-03-05T05:48:22;99049.34;;;5.07;65.73
43488;BME280;29078;41.932;25.554;2023-03-05T05:50:48;99089.31;;;5.18;65.90
43488;BME280;29078;41.932;25.554;2023-03-05T05:53:14;99079.63;;;5.10;65.59
43488;BME280;29078;41.932;25.554;2023-03-05T05:55:39;99144.22;;;5.61;65.69
43488;BME280;29078;41.932;25.554;2023-03-05T05:58:05;99031.75;;;4.92;65.45
43488;BME280;29078;41.932;25.554;2023-03-05T06:00:30;99143.91;;;5.64;65.54
43488;BME280;29078;41.932;25.554;2023-03-05T06:02:56;99075.94;;;5.21;65.75
43488;BME280;29078;41.932;25.554;2023-03-05T06:05:21;99058.84;;;5.08;65.32
43488;BME280;29078;41.932;25.554;2023-03-05T06:07:47;98895.19;;;4.20;65.55
43488;BME280;29078;41.932;25.554;2023-03-05T06:10:12;99072.72;;;5.27;65.59
43488;BME280;29078;41.932;25.554;2023-03-05T06:12:38;99146.25;;;5.75;65.47
43488;BME280;29078;41.932;25.554;2023-03-05T06:15:04;99130.53;;;5.75;65.82
43488;BME280;29078;41.932;25.554;2023-03-05T06:17:29;99166.75;;;5.80;65.43
43488;BME280;29078;41.932;25.554;2023-03-05T06:19:55;99094.81;;;5.66;65.00
43488;BME280;29078;41.932;25.554;2023-03-05T06:22:20;99146.44;;;6.08;65.50
43488;BME280;29078;41.932;25.554;2023-03-05T06:24:46;99078.28;;;5.66;65.05
43488;BME280;29078;41.932;25.554;2023-03-05T06:27:11;99138.13;;;5.87;65.56
43488;BME280;29078;41.932;25.554;2023-03-05T06:29:36;99079.63;;;5.78;65.44
43488;BME280;29078;41.932;25.554;2023-03-05T06:32:03;98991.72;;;5.25;65.01
43488;BME280;29078;41.932;25.554;2023-03-05T06:34:28;99031.91;;;5.50;64.99
43488;BME280;29078;41.932;25.554;2023-03-05T06:36:54;99026.69;;;5.58;65.49
43488;BME280;29078;41.932;25.554;2023-03-05T06:39:19;99129.13;;;6.23;65.39
43488;BME280;29078;41.932;25.554;2023-03-05T06:41:44;99099.13;;;6.18;65.19
43488;BME280;29078;41.932;25.554;2023-03-05T06:44:10;99105.53;;;6.31;65.23
43488;BME280;29078;41.932;25.554;2023-03-05T06:46:35;99032.41;;;5.96;65.21
43488;BME280;29078;41.932;25.554;2023-03-05T06:49:04;99158.56;;;6.84;64.80
43488;BME280;29078;41.932;25.554;2023-03-05T06:51:36;99156.28;;;6.89;64.61
43488;BME280;29078;41.932;25.554;2023-03-05T06:54:07;99159.56;;;6.99;64.97
43488;BME280;29078;41.932;25.554;2023-03-05T06:56:35;99148.88;;;7.00;64.34
43488;BME280;29078;41.932;25.554;2023-03-05T06:59:01;99055.56;;;6.41;64.91
43488;BME280;29078;41.932;25.554;2023-03-05T07:01:26;98996.41;;;6.14;64.50
43488;BME280;29078;41.932;25.554;2023-03-05T07:03:53;99154.28;;;7.15;64.99
43488;BME280;29078;41.932;25.554;2023-03-05T07:06:20;99156.41;;;7.20;65.00
43488;BME280;29078;41.932;25.554;2023-03-05T07:08:46;99154.78;;;7.27;64.43
43488;BME280;29078;41.932;25.554;2023-03-05T07:11:15;99149.50;;;7.35;64.89
43488;BME280;29078;41.932;25.554;2023-03-05T07:13:41;99055.75;;;6.80;64.60
43488;BME280;29078;41.932;25.554;2023-03-05T07:16:09;99139.97;;;7.42;64.70
43488;BME280;29078;41.932;25.554;2023-03-05T07:18:37;99050.66;;;6.87;65.22
43488;BME280;29078;41.932;25.554;2023-03-05T07:21:04;99075.69;;;7.22;64.89
43488;BME280;29078;41.932;25.554;2023-03-05T07:23:29;99016.38;;;6.88;64.92
43488;BME280;29078;41.932;25.554;2023-03-05T07:25:55;99031.44;;;7.03;65.13
43488;BME280;29078;41.932;25.554;2023-03-05T07:28:20;99066.78;;;7.39;65.28
43488;BME280;29078;41.932;25.554;2023-03-05T07:30:56;99067.41;;;7.41;65.25
43488;BME280;29078;41.932;25.554;2023-03-05T07:33:23;99117.78;;;8.00;64.96
43488;BME280;29078;41.932;25.554;2023-03-05T07:35:48;98970.53;;;7.15;64.99
43488;BME280;29078;41.932;25.554;2023-03-05T07:38:14;98933.03;;;6.98;65.08
43488;BME280;29078;41.932;25.554;2023-03-05T07:40:39;99075.81;;;7.84;65.64
43488;BME280;29078;41.932;25.554;2023-03-05T07:43:05;99073.75;;;8.02;65.50
43488;BME280;29078;41.932;25.554;2023-03-05T07:45:30;99084.84;;;8.12;65.56
43488;BME280;29078;41.932;25.554;2023-03-05T07:47:56;99011.44;;;7.80;65.79
43488;BME280;29078;41.932;25.554;2023-03-05T07:50:22;99089.19;;;8.36;66.21
43488;BME280;29078;41.932;25.554;2023-03-05T07:52:47;98966.34;;;7.68;65.80
43488;BME280;29078;41.932;25.554;2023-03-05T07:55:13;99100.06;;;8.56;66.47
43488;BME280;29078;41.932;25.554;2023-03-05T07:57:38;99071.53;;;8.45;66.43
43488;BME280;29078;41.932;25.554;2023-03-05T08:00:05;99106.38;;;8.70;66.23
43488;BME280;29078;41.932;25.554;2023-03-05T08:02:30;98981.72;;;8.02;66.44
43488;BME280;29078;41.932;25.554;2023-03-05T08:04:56;98997.56;;;8.17;66.42
43488;BME280;29078;41.932;25.554;2023-03-05T08:07:21;98944.09;;;8.02;66.34
43488;BME280;29078;41.932;25.554;2023-03-05T08:09:47;99045.94;;;8.76;66.28
43488;BME280;29078;41.932;25.554;2023-03-05T08:12:12;99108.06;;;9.23;66.27
43488;BME280;29078;41.932;25.554;2023-03-05T08:14:38;99100.34;;;9.36;66.25
43488;BME280;29078;41.932;25.554;2023-03-05T08:17:04;99028.31;;;9.00;66.30
43488;BME280;29078;41.932;25.554;2023-03-05T08:19:31;99102.00;;;9.52;66.96
43488;BME280;29078;41.932;25.554;2023-03-05T08:21:56;98996.09;;;8.98;66.07
43488;BME280;29078;41.932;25.554;2023-03-05T08:24:21;98946.56;;;8.78;66.54
43488;BME280;29078;41.932;25.554;2023-03-05T08:26:56;99048.31;;;9.38;66.36
43488;BME280;29078;41.932;25.554;2023-03-05T08:29:22;98970.75;;;9.11;65.99
43488;BME280;29078;41.932;25.554;2023-03-05T08:31:48;99050.00;;;9.61;65.88
43488;BME280;29078;41.932;25.554;2023-03-05T08:34:14;99057.91;;;9.61;65.70
43488;BME280;29078;41.932;25.554;2023-03-05T08:36:39;99072.81;;;9.83;65.37
43488;BME280;29078;41.932;25.554;2023-03-05T08:39:05;99029.91;;;9.60;65.42
43488;BME280;29078;41.932;25.554;2023-03-05T08:41:32;99109.84;;;10.26;65.17
43488;BME280;29078;41.932;25.554;2023-03-05T08:43:58;98980.72;;;9.31;64.72
43488;BME280;29078;41.932;25.554;2023-03-05T08:46:23;99105.72;;;10.38;64.83
43488;BME280;29078;41.932;25.554;2023-03-05T08:48:49;98891.94;;;8.80;64.56
43488;BME280;29078;41.932;25.554;2023-03-05T08:51:17;98959.03;;;9.65;64.20
43488;BME280;29078;41.932;25.554;2023-03-05T08:53:44;99108.78;;;10.56;64.26
43488;BME280;29078;41.932;25.554;2023-03-05T08:56:10;99036.34;;;10.23;64.02
43488;BME280;29078;41.932;25.554;2023-03-05T08:58:36;99100.72;;;10.86;63.20
43488;BME280;29078;41.932;25.554;2023-03-05T09:01:02;99097.75;;;10.95;63.64
43488;BME280;29078;41.932;25.554;2023-03-05T09:03:28;99095.38;;;11.07;62.49
43488;BME280;29078;41.932;25.554;2023-03-05T09:05:57;98980.63;;;10.54;62.08
43488;BME280;29078;41.932;25.554;2023-03-05T09:08:23;98948.78;;;10.34;61.95
43488;BME280;29078;41.932;25.554;2023-03-05T09:10:49;99088.41;;;11.21;61.68
43488;BME280;29078;41.932;25.554;2023-03-05T09:13:14;98997.34;;;10.61;61.70
43488;BME280;29078;41.932;25.554;2023-03-05T09:15:40;99041.69;;;11.00;61.51
43488;BME280;29078;41.932;25.554;2023-03-05T09:18:05;98994.44;;;10.83;60.62
43488;BME280;29078;41.932;25.554;2023-03-05T09:20:33;99062.03;;;11.27;60.68
43488;BME280;29078;41.932;25.554;2023-03-05T09:22:59;99035.00;;;11.04;60.41
43488;BME280;29078;41.932;25.554;2023-03-05T09:25:24;98981.25;;;10.56;60.64
43488;BME280;29078;41.932;25.554;2023-03-05T09:27:50;98980.81;;;10.52;61.23
43488;BME280;29078;41.932;25.554;2023-03-05T09:30:16;99013.19;;;10.89;60.25
43488;BME280;29078;41.932;25.554;2023-03-05T09:32:41;98982.94;;;10.63;60.87
43488;BME280;29078;41.932;25.554;2023-03-05T09:35:07;99026.81;;;10.92;59.95
43488;BME280;29078;41.932;25.554;2023-03-05T09:37:33;99046.06;;;11.14;60.71
43488;BME280;29078;41.932;25.554;2023-03-05T09:39:59;99064.09;;;11.32;60.78
43488;BME280;29078;41.932;25.554;2023-03-05T09:47:45;99054.13;;;11.34;59.47
43488;BME280;29078;41.932;25.554;2023-03-05T09:52:56;99042.56;;;11.35;60.24
43488;BME280;29078;41.932;25.554;2023-03-05T09:57:51;99065.13;;;11.37;59.66
43488;BME280;29078;41.932;25.554;2023-03-05T10:00:33;99022.03;;;11.37;59.44
43488;BME280;29078;41.932;25.554;2023-03-05T10:03:04;98956.34;;;10.99;59.77
43488;BME280;29078;41.932;25.554;2023-03-05T10:08:21;98968.53;;;11.35;59.60
43488;BME280;29078;41.932;25.554;2023-03-05T10:10:50;98968.75;;;11.33;59.00
43488;BME280;29078;41.932;25.554;2023-03-05T10:13:30;99002.84;;;11.69;59.47
43488;BME280;29078;41.932;25.554;2023-03-05T10:19:09;98951.13;;;11.54;59.00
43488;BME280;29078;41.932;25.554;2023-03-05T10:22:09;98989.94;;;11.94;58.98
43488;BME280;29078;41.932;25.554;2023-03-05T10:27:20;98981.81;;;12.02;57.98
43488;BME280;29078;41.932;25.554;2023-03-05T10:33:07;98966.16;;;12.07;57.34
43488;BME280;29078;41.932;25.554;2023-03-05T10:38:42;98952.09;;;12.00;56.33
43488;BME280;29078;41.932;25.554;2023-03-05T10:44:19;98960.47;;;12.17;57.11
43488;BME280;29078;41.932;25.554;2023-03-05T10:46:46;98959.25;;;12.13;56.70
43488;BME280;29078;41.932;25.554;2023-03-05T10:49:25;98887.28;;;11.63;56.66
43488;BME280;29078;41.932;25.554;2023-03-05T10:52:12;98927.69;;;12.12;56.60
43488;BME280;29078;41.932;25.554;2023-03-05T10:54:40;98948.66;;;12.39;56.42
43488;BME280;29078;41.932;25.554;2023-03-05T10:57:21;98948.25;;;12.56;55.54
43488;BME280;29078;41.932;25.554;2023-03-05T10:59:48;98945.81;;;12.74;55.74
43488;BME280;29078;41.932;25.554;2023-03-05T11:02:16;98933.53;;;12.93;55.29
43488;BME280;29078;41.932;25.554;2023-03-05T11:04:41;98727.22;;;11.67;54.88
43488;BME280;29078;41.932;25.554;2023-03-05T11:07:29;98922.91;;;12.99;54.54
43488;BME280;29078;41.932;25.554;2023-03-05T11:10:05;98906.84;;;12.88;54.47
43488;BME280;29078;41.932;25.554;2023-03-05T11:12:36;98835.66;;;12.27;54.48
43488;BME280;29078;41.932;25.554;2023-03-05T11:17:45;98839.53;;;12.18;54.85
43488;BME280;29078;41.932;25.554;2023-03-05T11:23:04;98858.88;;;12.25;54.51
43488;BME280;29078;41.932;25.554;2023-03-05T11:25:31;98907.31;;;12.52;55.50
43488;BME280;29078;41.932;25.554;2023-03-05T11:27:59;98909.53;;;12.55;55.12
43488;BME280;29078;41.932;25.554;2023-03-05T11:30:33;98901.59;;;12.55;55.38
43488;BME280;29078;41.932;25.554;2023-03-05T11:33:19;98895.50;;;12.54;55.19
43488;BME280;29078;41.932;25.554;2023-03-05T11:35:47;98898.78;;;12.43;55.14
43488;BME280;29078;41.932;25.554;2023-03-05T11:40:43;98884.13;;;12.34;55.44
43488;BME280;29078;41.932;25.554;2023-03-05T11:43:15;98885.75;;;12.28;56.12
43488;BME280;29078;41.932;25.554;2023-03-05T11:45:42;98786.00;;;11.63;55.91
43488;BME280;29078;41.932;25.554;2023-03-05T11:48:19;98884.13;;;12.27;54.89
43488;BME280;29078;41.932;25.554;2023-03-05T11:50:53;98817.16;;;11.87;55.48
43488;BME280;29078;41.932;25.554;2023-03-05T11:53:23;98695.31;;;11.16;55.15
43488;BME280;29078;41.932;25.554;2023-03-05T11:56:19;98867.44;;;12.20;55.17
43488;BME280;29078;41.932;25.554;2023-03-05T11:58:50;98857.47;;;12.16;55.37
43488;BME280;29078;41.932;25.554;2023-03-05T12:01:19;98788.03;;;11.67;54.89
43488;BME280;29078;41.932;25.554;2023-03-05T12:03:45;98722.56;;;11.36;55.11
43488;BME280;29078;41.932;25.554;2023-03-05T12:08:41;98866.81;;;12.18;55.04
43488;BME280;29078;41.932;25.554;2023-03-05T12:11:16;98806.16;;;11.84;54.59
43488;BME280;29078;41.932;25.554;2023-03-05T12:13:50;98851.16;;;12.23;54.69
43488;BME280;29078;41.932;25.554;2023-03-05T12:19:28;98806.41;;;11.95;54.98
43488;BME280;29078;41.932;25.554;2023-03-05T12:21:57;98852.97;;;12.23;55.03
43488;BME280;29078;41.932;25.554;2023-03-05T12:31:52;98834.66;;;12.28;54.31
43488;BME280;29078;41.932;25.554;2023-03-05T12:55:44;98803.72;;;12.22;53.45
43488;BME280;29078;41.932;25.554;2023-03-05T12:58:39;98723.97;;;11.72;52.79
43488;BME280;29078;41.932;25.554;2023-03-05T13:04:02;98795.13;;;12.33;51.97
43488;BME280;29078;41.932;25.554;2023-03-05T13:06:33;98792.06;;;12.36;52.57
43488;BME280;29078;41.932;25.554;2023-03-05T13:09:01;98800.00;;;12.36;52.31
43488;BME280;29078;41.932;25.554;2023-03-05T13:11:29;98800.41;;;12.39;52.00
43488;BME280;29078;41.932;25.554;2023-03-05T13:13:56;98750.38;;;12.25;52.36
43488;BME280;29078;41.932;25.554;2023-03-05T13:16:27;98768.69;;;12.26;52.26
43488;BME280;29078;41.932;25.554;2023-03-05T13:18:56;98714.59;;;12.02;51.86
43488;BME280;29078;41.932;25.554;2023-03-05T13:21:25;98667.63;;;11.71;51.93
43488;BME280;29078;41.932;25.554;2023-03-05T13:24:01;98704.44;;;11.93;50.55
43488;BME280;29078;41.932;25.554;2023-03-05T13:26:29;98742.25;;;12.13;51.85
43488;BME280;29078;41.932;25.554;2023-03-05T13:29:21;98776.59;;;12.33;51.59
43488;BME280;29078;41.932;25.554;2023-03-05T13:31:58;98756.72;;;12.04;51.79
43488;BME280;29078;41.932;25.554;2023-03-05T13:34:35;98788.41;;;12.37;51.11
43488;BME280;29078;41.932;25.554;2023-03-05T13:37:06;98738.81;;;12.06;51.56
43488;BME280;29078;41.932;25.554;2023-03-05T13:39:59;98709.50;;;11.88;51.47
43488;BME280;29078;41.932;25.554;2023-03-05T13:42:28;98784.31;;;12.41;51.14
43488;BME280;29078;41.932;25.554;2023-03-05T13:45:15;98765.63;;;12.29;51.86
43488;BME280;29078;41.932;25.554;2023-03-05T13:47:52;98780.66;;;12.42;51.34
43488;BME280;29078;41.932;25.554;2023-03-05T13:50:29;98617.22;;;11.46;51.19
43488;BME280;29078;41.932;25.554;2023-03-05T13:52:59;98686.34;;;11.90;51.58
43488;BME280;29078;41.932;25.554;2023-03-05T13:55:37;98760.06;;;12.44;51.89
43488;BME280;29078;41.932;25.554;2023-03-05T13:58:03;98761.88;;;12.50;51.68
43488;BME280;29078;41.932;25.554;2023-03-05T14:00:37;98668.00;;;11.88;51.52
43488;BME280;29078;41.932;25.554;2023-03-05T14:03:09;98767.16;;;12.57;51.42
43488;BME280;29078;41.932;25.554;2023-03-05T14:05:36;98698.13;;;12.00;51.34
43488;BME280;29078;41.932;25.554;2023-03-05T14:08:21;98651.31;;;11.88;51.18
43488;BME280;29078;41.932;25.554;2023-03-05T14:10:48;98723.88;;;12.31;51.55
43488;BME280;29078;41.932;25.554;2023-03-05T14:13:23;98751.66;;;12.60;51.32
43488;BME280;29078;41.932;25.554;2023-03-05T14:16:12;98728.31;;;12.44;51.23
43488;BME280;29078;41.932;25.554;2023-03-05T14:18:38;98709.41;;;12.34;51.63